createdAt,value
2022-12-29T00:00:01.570Z,12.65
2022-12-29T00:01:42.780Z,4.18
2022-12-29T00:02:28.879Z,8.85
2022-12-29T00:04:15.130Z,6.18
2022-12-29T00:04:56.139Z,10.10
2022-12-29T00:06:43.445Z,4.72
2022-12-29T00:07:24.559Z,8.57
2022-12-29T00:09:13.389Z,4.80
2022-12-29T00:09:51.791Z,8.48
2022-12-29T00:11:40.676Z,3.92
2022-12-29T00:12:23.002Z,9.60
2022-12-29T00:14:27.983Z,4.18
2022-12-29T00:15:09.015Z,8.90
2022-12-29T00:16:54.652Z,3.83
2022-12-29T00:17:36.270Z,8.85
2022-12-29T00:19:39.815Z,4.13
2022-12-29T00:20:24.397Z,9.20
2022-12-29T00:22:25.943Z,4.53
2022-12-29T00:23:13.347Z,9.00
2022-12-29T00:26:00.153Z,9.50
2022-12-29T00:27:59.243Z,4.20
2022-12-29T00:28:45.900Z,8.73
2022-12-29T00:30:48.649Z,4.30
2022-12-29T00:31:32.483Z,9.60
2022-12-29T00:33:36.892Z,5.07
2022-12-29T00:34:18.399Z,9.23
2022-12-29T00:36:14.169Z,5.47
2022-12-29T00:36:46.083Z,9.57
2022-12-29T00:39:04.563Z,4.32
2022-12-29T00:39:43.263Z,8.95
2022-12-29T00:41:49.697Z,4.80
2022-12-29T00:42:29.586Z,9.32
2022-12-29T00:44:16.367Z,5.53
2022-12-29T00:44:56.800Z,9.93
2022-12-29T00:46:44.008Z,3.55
2022-12-29T00:47:24.104Z,8.43
2022-12-29T00:49:31.408Z,4.35
2022-12-29T00:49:51.321Z,9.07
2022-12-29T00:52:10.279Z,3.65
2022-12-29T00:52:18.570Z,8.45
2022-12-29T00:54:38.842Z,3.85
2022-12-29T00:54:45.979Z,8.23
2022-12-29T00:57:07.549Z,3.53
2022-12-29T00:57:13.523Z,8.18
2022-12-29T00:59:36.660Z,3.70
2022-12-29T00:59:43.872Z,8.65
2022-12-29T01:02:03.437Z,4.38
2022-12-29T01:02:11.949Z,9.65
2022-12-29T01:04:30.288Z,3.47
2022-12-29T01:04:39.309Z,8.48
2022-12-29T01:06:57.028Z,3.78
2022-12-29T01:07:06.628Z,8.50
2022-12-29T01:09:42.250Z,4.35
2022-12-29T01:09:53.584Z,8.05
2022-12-29T01:12:10.081Z,3.40
2022-12-29T01:12:42.358Z,8.05
2022-12-29T01:14:38.006Z,3.70
2022-12-29T01:15:14.361Z,7.23
2022-12-29T01:17:05.559Z,3.28
2022-12-29T01:17:41.753Z,7.85
2022-12-29T01:19:32.237Z,3.03
2022-12-29T01:20:09.226Z,6.88
2022-12-29T01:21:58.861Z,3.47
2022-12-29T01:22:36.534Z,9.57
2022-12-29T01:24:26.987Z,3.40
2022-12-29T01:25:04.293Z,7.78
2022-12-29T01:26:55.300Z,3.95
2022-12-29T01:27:31.570Z,6.32
2022-12-29T01:29:22.431Z,3.03
2022-12-29T01:29:59.840Z,7.15
2022-12-29T01:31:50.830Z,3.15
2022-12-29T01:32:27.047Z,6.95
2022-12-29T01:34:18.719Z,4.60
2022-12-29T01:34:54.325Z,7.13
2022-12-29T01:36:45.696Z,3.30
2022-12-29T01:37:21.589Z,6.55
2022-12-29T01:39:12.408Z,5.65
2022-12-29T01:39:48.803Z,8.35
2022-12-29T01:41:39.269Z,4.03
2022-12-29T01:42:19.830Z,6.95
2022-12-29T01:44:44.495Z,2.85
2022-12-29T01:45:00.510Z,6.20
2022-12-29T01:47:11.621Z,3.95
2022-12-29T01:47:30.738Z,5.85
2022-12-29T01:49:38.997Z,3.10
2022-12-29T01:49:59.422Z,6.55
2022-12-29T01:52:08.930Z,3.13
2022-12-29T01:52:29.993Z,6.57
2022-12-29T01:54:43.724Z,3.85
2022-12-29T01:54:58.563Z,8.32
2022-12-29T01:57:16.247Z,5.07
2022-12-29T01:57:31.732Z,6.78
2022-12-29T01:59:48.545Z,3.55
2022-12-29T02:00:08.357Z,11.15
2022-12-29T02:02:15.307Z,2.65
2022-12-29T02:02:35.946Z,6.60
2022-12-29T02:04:46.490Z,3.70
2022-12-29T02:05:07.097Z,6.30
2022-12-29T02:07:20.419Z,3.25
2022-12-29T02:07:34.746Z,7.03
2022-12-29T02:09:49.586Z,4.30
2022-12-29T02:10:03.064Z,6.32
2022-12-29T02:12:17.663Z,3.03
2022-12-29T02:12:30.275Z,6.55
2022-12-29T02:14:45.152Z,2.92
2022-12-29T02:15:00.518Z,6.97
2022-12-29T02:17:27.730Z,2.60
2022-12-29T02:17:33.854Z,6.13
2022-12-29T02:20:00.385Z,3.15
2022-12-29T02:20:13.332Z,6.40
2022-12-29T02:22:51.278Z,2.80
2022-12-29T02:22:52.444Z,6.40
2022-12-29T02:25:17.882Z,3.35
2022-12-29T02:25:29.018Z,6.57
2022-12-29T02:27:57.066Z,2.67
2022-12-29T02:28:15.281Z,5.45
2022-12-29T02:30:41.642Z,2.92
2022-12-29T02:30:45.638Z,6.38
2022-12-29T02:33:14.787Z,4.07
2022-12-29T02:33:31.543Z,6.43
2022-12-29T02:36:11.303Z,2.70
2022-12-29T02:41:57.723Z,2.72
2022-12-29T02:44:27.309Z,2.42
2022-12-29T02:47:04.540Z,2.58
2022-12-29T02:49:55.090Z,3.55
2022-12-29T02:52:29.669Z,2.83
2022-12-29T02:54:56.410Z,2.58
2022-12-29T02:57:23.039Z,3.90
2022-12-29T02:59:56.102Z,5.20
2022-12-29T03:02:59.876Z,2.63
2022-12-29T03:05:44.170Z,10.15
2022-12-29T03:08:19.301Z,4.18
2022-12-29T03:11:27.752Z,2.53
2022-12-29T03:14:19.099Z,4.25
2022-12-29T03:16:49.141Z,2.00
2022-12-29T03:19:26.189Z,3.25
2022-12-29T03:22:18.450Z,2.63
2022-12-29T03:24:50.157Z,2.50
2022-12-29T03:27:23.858Z,3.42
2022-12-29T03:29:55.789Z,2.47
2022-12-29T03:32:48.147Z,2.10
2022-12-29T03:35:18.770Z,2.65
2022-12-29T03:38:01.147Z,3.08
2022-12-29T03:40:29.711Z,2.55
2022-12-29T03:42:57.021Z,2.47
2022-12-29T03:45:23.741Z,2.47
2022-12-29T03:47:51.054Z,3.60
2022-12-29T03:50:17.777Z,2.53
2022-12-29T03:52:45.193Z,2.45
2022-12-29T03:55:14.085Z,3.67
2022-12-29T03:57:41.253Z,3.22
2022-12-29T04:00:08.555Z,4.03
2022-12-29T04:02:35.332Z,2.20
2022-12-29T04:05:02.131Z,4.53
2022-12-29T04:07:28.820Z,3.35
2022-12-29T04:09:55.491Z,3.28
2022-12-29T04:12:22.116Z,8.65
2022-12-29T04:14:48.714Z,2.25
2022-12-29T04:17:15.695Z,3.28
2022-12-29T04:19:42.779Z,2.17
2022-12-29T04:22:09.482Z,3.22
2022-12-29T04:24:36.205Z,1.88
2022-12-29T04:27:02.835Z,2.58
2022-12-29T04:29:29.502Z,1.85
2022-12-29T04:31:56.222Z,3.17
2022-12-29T04:34:22.908Z,2.13
2022-12-29T04:36:49.602Z,3.75
2022-12-29T04:39:16.302Z,2.35
2022-12-29T04:41:43.007Z,3.20
2022-12-29T04:44:09.654Z,4.53
2022-12-29T04:46:36.364Z,2.33
2022-12-29T04:49:08.815Z,4.80
2022-12-29T04:51:36.184Z,1.92
2022-12-29T04:54:02.933Z,2.55
2022-12-29T04:56:29.955Z,1.85
2022-12-29T04:58:56.650Z,2.17
2022-12-29T05:01:23.446Z,2.25
2022-12-29T05:03:52.331Z,2.22
2022-12-29T05:06:19.060Z,1.55
2022-12-29T05:08:45.888Z,2.15
2022-12-29T05:11:12.625Z,2.40
2022-12-29T05:13:39.346Z,2.47
2022-12-29T05:16:06.484Z,4.28
2022-12-29T05:18:33.277Z,4.13
2022-12-29T05:21:00.223Z,2.80
2022-12-29T05:23:26.900Z,2.85
2022-12-29T05:25:53.630Z,1.65
2022-12-29T05:28:20.294Z,4.03
2022-12-29T05:30:50.682Z,2.97
2022-12-29T05:33:18.560Z,3.45
2022-12-29T05:35:45.791Z,2.85
2022-12-29T05:38:12.464Z,2.40
2022-12-29T05:40:39.143Z,2.17
2022-12-29T05:43:05.743Z,2.45
2022-12-29T05:45:32.414Z,2.28
2022-12-29T05:47:59.088Z,5.28
2022-12-29T05:50:25.757Z,4.68
2022-12-29T05:52:52.466Z,5.15
2022-12-29T05:55:19.143Z,7.60
2022-12-29T05:57:45.838Z,7.88
2022-12-29T06:00:13.092Z,2.08
2022-12-29T06:02:39.851Z,3.33
2022-12-29T06:05:06.785Z,4.05
2022-12-29T06:07:33.439Z,3.53
2022-12-29T06:10:00.183Z,6.78
2022-12-29T06:12:26.837Z,1.92
2022-12-29T06:14:53.907Z,3.08
2022-12-29T06:17:20.548Z,3.30
2022-12-29T06:19:47.215Z,6.35
2022-12-29T06:22:14.195Z,5.03
2022-12-29T06:24:41.299Z,5.65
2022-12-29T06:27:08.051Z,6.53
2022-12-29T06:29:35.991Z,7.18
2022-12-29T06:32:02.714Z,4.93
2022-12-29T06:34:29.586Z,4.90
2022-12-29T06:36:56.245Z,3.70
2022-12-29T06:39:22.896Z,7.78
2022-12-29T06:41:52.410Z,3.00
2022-12-29T06:44:19.009Z,7.88
2022-12-29T06:46:45.673Z,3.30
2022-12-29T06:49:12.334Z,8.23
2022-12-29T06:51:39.066Z,9.20
2022-12-29T06:54:05.803Z,4.47
2022-12-29T06:56:32.726Z,4.88
2022-12-29T06:59:01.961Z,6.45
2022-12-29T07:01:28.901Z,6.93
2022-12-29T07:03:55.659Z,5.57
2022-12-29T07:06:22.721Z,14.38
2022-12-29T07:08:49.379Z,10.25
2022-12-29T07:11:16.000Z,8.82
2022-12-29T07:13:43.929Z,7.38
2022-12-29T07:16:11.181Z,17.58
2022-12-29T07:18:38.095Z,7.53
2022-12-29T07:21:05.217Z,10.98
2022-12-29T07:23:31.958Z,8.73
2022-12-29T07:26:03.123Z,13.75
2022-12-29T07:28:30.576Z,7.55
2022-12-29T07:30:57.294Z,10.20
2022-12-29T07:33:23.942Z,10.35
2022-12-29T07:35:50.733Z,11.82
2022-12-29T07:38:17.483Z,13.75
2022-12-29T07:40:44.541Z,11.40
2022-12-29T07:43:11.147Z,12.90
2022-12-29T07:45:37.872Z,6.53
2022-12-29T07:48:08.583Z,6.38
2022-12-29T07:50:36.205Z,9.57
2022-12-29T07:53:03.808Z,6.05
2022-12-29T07:55:30.571Z,9.80
2022-12-29T07:57:57.915Z,9.32
2022-12-29T08:00:24.918Z,7.60
2022-12-29T08:02:51.558Z,7.30
2022-12-29T08:05:18.553Z,7.82
2022-12-29T08:07:46.190Z,9.65
2022-12-29T08:10:13.413Z,3.97
2022-12-29T08:12:40.947Z,7.05
2022-12-29T08:15:08.981Z,6.72
2022-12-29T08:17:35.720Z,4.72
2022-12-29T08:20:02.848Z,12.60
2022-12-29T08:22:29.515Z,5.88
2022-12-29T08:24:56.193Z,8.15
2022-12-29T08:27:23.132Z,5.75
2022-12-29T08:29:49.978Z,5.10
2022-12-29T08:32:16.974Z,9.85
2022-12-29T08:34:43.563Z,5.70
2022-12-29T08:37:10.314Z,7.97
2022-12-29T08:39:37.009Z,13.10
2022-12-29T08:42:03.786Z,11.95
2022-12-29T08:44:30.430Z,9.93
2022-12-29T08:46:57.180Z,5.45
2022-12-29T08:49:23.930Z,14.75
2022-12-29T08:51:50.614Z,11.40
2022-12-29T08:54:17.226Z,9.85
2022-12-29T08:56:43.855Z,5.57
2022-12-29T08:59:10.462Z,9.00
2022-12-29T09:01:41.345Z,5.65
2022-12-29T09:04:17.359Z,4.43
2022-12-29T09:06:45.929Z,8.27
2022-12-29T09:09:13.043Z,3.35
2022-12-29T09:11:39.666Z,6.38
2022-12-29T09:14:06.384Z,8.38
2022-12-29T09:16:33.815Z,9.38
2022-12-29T09:19:00.732Z,7.10
2022-12-29T09:21:27.368Z,5.25
2022-12-29T09:23:53.985Z,9.75
2022-12-29T09:26:20.696Z,6.72
2022-12-29T09:28:48.068Z,8.82
2022-12-29T09:31:15.273Z,7.75
2022-12-29T09:33:42.125Z,9.55
2022-12-29T09:36:09.780Z,10.00
2022-12-29T09:38:36.467Z,5.05
2022-12-29T09:41:27.144Z,9.52
2022-12-29T09:44:08.034Z,8.63
2022-12-29T09:47:01.772Z,10.77
2022-12-29T09:49:46.065Z,5.72
2022-12-29T09:52:30.662Z,7.47
2022-12-29T09:55:09.118Z,6.80
2022-12-29T09:58:02.878Z,8.52
2022-12-29T10:00:55.753Z,7.20
2022-12-29T10:03:25.718Z,7.60
2022-12-29T10:06:20.501Z,5.00
2022-12-29T10:09:11.639Z,7.38
2022-12-29T10:12:23.169Z,9.25
2022-12-29T10:15:04.708Z,6.55
2022-12-29T10:17:37.241Z,11.80
2022-12-29T10:20:33.704Z,9.60
2022-12-29T10:23:25.743Z,9.45
2022-12-29T10:25:57.346Z,13.65
2022-12-29T10:28:43.926Z,9.95
2022-12-29T10:31:22.069Z,8.15
2022-12-29T10:33:53.439Z,8.63
2022-12-29T10:36:36.872Z,10.35
2022-12-29T10:39:06.553Z,11.00
2022-12-29T10:41:44.752Z,7.32
2022-12-29T10:44:16.047Z,12.05
2022-12-29T10:46:44.141Z,8.80
2022-12-29T10:49:21.835Z,8.65
2022-12-29T10:51:52.921Z,8.18
2022-12-29T10:54:26.516Z,10.23
2022-12-29T10:57:03.787Z,11.10
2022-12-29T10:59:32.691Z,12.15
2022-12-29T11:02:11.190Z,8.13
2022-12-29T11:05:05.976Z,7.35
2022-12-29T11:07:33.033Z,14.55
2022-12-29T11:10:22.866Z,11.73
2022-12-29T11:13:01.737Z,10.65
2022-12-29T11:15:38.841Z,7.97
2022-12-29T11:18:05.540Z,11.20
2022-12-29T11:20:36.790Z,13.77
2022-12-29T11:23:04.952Z,4.82
2022-12-29T11:25:31.873Z,6.22
2022-12-29T11:28:14.916Z,9.95
2022-12-29T11:30:41.731Z,11.35
2022-12-29T11:33:10.121Z,6.05
2022-12-29T11:35:42.845Z,8.80
2022-12-29T11:38:25.992Z,9.32
2022-12-29T11:40:52.912Z,10.48
2022-12-29T11:43:31.780Z,5.88
2022-12-29T11:45:58.546Z,10.85
2022-12-29T11:48:29.916Z,7.00
2022-12-29T11:51:00.709Z,7.20
2022-12-29T11:53:39.149Z,10.63
2022-12-29T11:56:09.764Z,13.45
2022-12-29T11:58:38.473Z,12.48
2022-12-29T12:01:07.589Z,9.10
2022-12-29T12:03:38.107Z,12.18
2022-12-29T12:06:07.259Z,10.77
2022-12-29T12:08:46.457Z,10.05
2022-12-29T12:11:37.033Z,7.75
2022-12-29T12:14:24.873Z,8.20
2022-12-29T12:16:56.384Z,7.97
2022-12-29T12:19:35.933Z,5.28
2022-12-29T12:22:28.122Z,5.47
2022-12-29T12:25:21.447Z,10.63
2022-12-29T12:28:18.495Z,10.85
2022-12-29T12:30:49.722Z,10.38
2022-12-29T12:33:39.861Z,8.77
2022-12-29T12:36:26.541Z,12.00
2022-12-29T12:39:11.701Z,6.32
2022-12-29T12:42:04.691Z,10.43
2022-12-29T12:44:49.746Z,12.07
2022-12-29T12:47:44.298Z,14.13
2022-12-29T12:50:37.081Z,10.45
2022-12-29T12:53:40.801Z,13.82
2022-12-29T12:56:26.484Z,9.98
2022-12-29T12:59:20.368Z,17.02
2022-12-29T13:02:08.239Z,17.67
2022-12-29T13:04:38.083Z,16.77
2022-12-29T13:07:10.545Z,11.18
2022-12-29T13:10:11.475Z,10.98
2022-12-29T13:13:05.900Z,15.50
2022-12-29T13:15:47.041Z,21.30
2022-12-29T13:18:58.537Z,15.00
2022-12-29T13:21:40.126Z,12.20
2022-12-29T13:24:34.776Z,17.85
2022-12-29T13:27:37.175Z,13.43
2022-12-29T13:30:24.007Z,17.65
2022-12-29T13:33:25.557Z,10.20
2022-12-29T13:35:58.737Z,23.02
2022-12-29T13:38:36.973Z,13.02
2022-12-29T13:41:10.426Z,8.50
2022-12-29T13:43:40.968Z,9.00
2022-12-29T13:46:16.293Z,6.75
2022-12-29T13:48:42.896Z,9.25
2022-12-29T13:51:11.446Z,14.73
2022-12-29T13:53:53.430Z,14.02
2022-12-29T13:56:40.846Z,13.70
2022-12-29T13:59:22.643Z,12.18
2022-12-29T14:02:01.344Z,13.02
2022-12-29T14:04:30.798Z,15.20
2022-12-29T14:07:20.512Z,13.95
2022-12-29T14:09:50.720Z,17.40
2022-12-29T14:12:31.437Z,15.68
2022-12-29T14:15:10.366Z,13.25
2022-12-29T14:17:38.405Z,16.42
2022-12-29T14:20:16.275Z,15.50
2022-12-29T14:22:58.213Z,17.45
2022-12-29T14:25:53.950Z,15.15
2022-12-29T14:28:35.040Z,22.70
2022-12-29T14:31:25.916Z,20.90
2022-12-29T14:34:18.705Z,20.05
2022-12-29T14:36:57.050Z,16.70
2022-12-29T14:39:39.945Z,13.95
2022-12-29T14:42:10.959Z,17.83
2022-12-29T14:45:08.882Z,20.75
2022-12-29T14:47:47.271Z,21.75
2022-12-29T14:50:25.555Z,14.40
2022-12-29T14:53:03.773Z,15.80
2022-12-29T14:55:47.282Z,12.57
2022-12-29T14:58:30.747Z,17.05
2022-12-29T15:00:57.990Z,16.83
2022-12-29T15:03:44.197Z,18.05
2022-12-29T15:06:19.892Z,13.30
2022-12-29T15:09:18.865Z,17.23
2022-12-29T15:11:53.262Z,17.58
2022-12-29T15:14:39.199Z,13.23
2022-12-29T15:17:33.817Z,15.85
2022-12-29T15:20:02.819Z,26.42
2022-12-29T15:22:31.256Z,25.55
2022-12-29T15:24:58.529Z,18.05
2022-12-29T15:27:27.558Z,15.18
2022-12-29T15:30:05.203Z,21.02
2022-12-29T15:32:43.058Z,15.63
2022-12-29T15:35:29.667Z,14.25
2022-12-29T15:37:56.636Z,15.80
2022-12-29T15:40:29.699Z,15.38
2022-12-29T15:43:21.252Z,16.02
2022-12-29T15:45:48.227Z,15.80
2022-12-29T15:48:22.378Z,10.10
2022-12-29T15:50:49.725Z,19.88
2022-12-29T15:53:28.932Z,21.52
2022-12-29T15:56:14.697Z,11.18
2022-12-29T15:58:48.625Z,10.23
2022-12-29T16:01:36.405Z,16.08
2022-12-29T16:04:09.314Z,10.48
2022-12-29T16:06:38.166Z,13.60
2022-12-29T16:09:18.151Z,14.27
2022-12-29T16:11:54.604Z,13.90
2022-12-29T16:14:32.639Z,8.48
2022-12-29T16:17:04.763Z,10.35
2022-12-29T16:19:41.524Z,11.80
2022-12-29T16:22:25.724Z,13.98
2022-12-29T16:25:02.540Z,15.23
2022-12-29T16:27:41.199Z,12.45
2022-12-29T16:30:29.514Z,7.82
2022-12-29T16:33:02.949Z,12.32
2022-12-29T16:35:44.473Z,10.98
2022-12-29T16:38:15.712Z,30.52
2022-12-29T16:40:55.624Z,11.07
2022-12-29T16:43:33.958Z,9.20
2022-12-29T16:46:00.583Z,6.55
2022-12-29T16:48:31.455Z,9.35
2022-12-29T16:51:12.702Z,6.60
2022-12-29T16:53:41.594Z,7.47
2022-12-29T16:56:17.550Z,5.07
2022-12-29T16:58:49.382Z,6.93
2022-12-29T17:01:19.736Z,9.80
2022-12-29T17:03:51.769Z,5.40
2022-12-29T17:06:20.652Z,5.15
2022-12-29T17:08:48.913Z,8.15
2022-12-29T17:11:43.239Z,5.80
2022-12-29T17:14:37.734Z,7.00
2022-12-29T17:17:10.023Z,10.63
2022-12-29T17:19:38.619Z,6.22
2022-12-29T17:22:19.443Z,7.50
2022-12-29T17:24:46.112Z,2.47
2022-12-29T17:27:29.464Z,9.85
2022-12-29T17:30:03.518Z,9.25
2022-12-29T17:32:30.998Z,6.18
2022-12-29T17:34:57.640Z,11.27
2022-12-29T17:37:24.436Z,12.60
2022-12-29T17:39:51.708Z,8.88
2022-12-29T17:42:19.795Z,12.43
2022-12-29T17:44:46.943Z,10.15
2022-12-29T17:47:15.671Z,12.95
2022-12-29T17:49:48.376Z,15.18
2022-12-29T17:52:17.136Z,11.57
2022-12-29T17:54:51.092Z,15.73
2022-12-29T17:57:19.293Z,14.75
2022-12-29T17:59:46.112Z,16.55
2022-12-29T18:02:32.138Z,16.67
2022-12-29T18:04:59.560Z,10.35
2022-12-29T18:07:32.538Z,9.85
2022-12-29T18:10:03.105Z,14.45
2022-12-29T18:12:39.313Z,8.70
2022-12-29T18:15:08.425Z,10.85
2022-12-29T18:17:35.055Z,12.63
2022-12-29T18:20:01.667Z,11.52
2022-12-29T18:22:30.114Z,9.05
2022-12-29T18:24:56.796Z,8.60
2022-12-29T18:27:23.493Z,9.02
2022-12-29T18:29:50.210Z,11.02
2022-12-29T18:32:17.410Z,10.40
2022-12-29T18:34:44.545Z,10.07
2022-12-29T18:37:11.807Z,10.63
2022-12-29T18:39:38.528Z,12.68
2022-12-29T18:42:06.531Z,11.48
2022-12-29T18:44:33.639Z,16.73
2022-12-29T18:47:01.343Z,17.10
2022-12-29T18:49:28.290Z,16.02
2022-12-29T18:51:55.034Z,19.00
2022-12-29T18:54:31.528Z,14.35
2022-12-29T18:56:58.736Z,10.50
2022-12-29T18:59:25.987Z,17.08
2022-12-29T19:01:53.539Z,9.95
2022-12-29T19:04:22.198Z,13.85
2022-12-29T19:06:48.990Z,12.32
2022-12-29T19:09:15.642Z,12.93
2022-12-29T19:11:42.370Z,13.32
2022-12-29T19:14:17.162Z,10.23
2022-12-29T19:16:43.897Z,12.73
2022-12-29T19:19:15.358Z,15.45
2022-12-29T19:21:42.299Z,10.30
2022-12-29T19:24:08.976Z,12.25
2022-12-29T19:26:38.135Z,10.18
2022-12-29T19:29:06.441Z,19.08
2022-12-29T19:31:33.403Z,10.95
2022-12-29T19:34:01.964Z,11.88
2022-12-29T19:36:28.791Z,11.73
2022-12-29T19:38:55.838Z,13.10
2022-12-29T19:41:23.163Z,13.73
2022-12-29T19:43:50.405Z,14.00
2022-12-29T19:46:18.947Z,18.40
2022-12-29T19:48:45.783Z,12.77
2022-12-29T19:51:18.362Z,16.08
2022-12-29T19:53:46.208Z,16.52
2022-12-29T19:56:13.753Z,16.85
2022-12-29T19:58:45.462Z,14.80
2022-12-29T20:01:17.548Z,14.05
2022-12-29T20:03:44.506Z,14.20
2022-12-29T20:06:11.704Z,17.63
2022-12-29T20:08:39.443Z,21.52
2022-12-29T20:11:08.681Z,14.00
2022-12-29T20:13:36.257Z,14.95
2022-12-29T20:16:05.490Z,18.27
2022-12-29T20:18:32.587Z,21.77
2022-12-29T20:21:15.062Z,15.35
2022-12-29T20:23:43.151Z,19.95
2022-12-29T20:26:18.474Z,22.02
2022-12-29T20:28:45.319Z,14.50
2022-12-29T20:31:19.867Z,11.45
2022-12-29T20:33:47.357Z,18.23
2022-12-29T20:36:17.593Z,22.45
2022-12-29T20:38:45.787Z,16.65
2022-12-29T20:41:13.907Z,11.88
2022-12-29T20:43:41.524Z,16.65
2022-12-29T20:46:08.947Z,35.33
2022-12-29T20:48:35.658Z,16.67
2022-12-29T20:51:02.598Z,17.90
2022-12-29T20:53:31.375Z,18.75
2022-12-29T20:56:05.000Z,14.98
2022-12-29T20:58:32.731Z,20.08
2022-12-29T21:01:08.193Z,20.45
2022-12-29T21:03:35.235Z,24.65
2022-12-29T21:06:01.972Z,17.80
2022-12-29T21:08:32.716Z,22.50
2022-12-29T21:10:59.839Z,17.67
2022-12-29T21:13:27.533Z,19.58
2022-12-29T21:16:00.094Z,13.23
2022-12-29T21:18:28.531Z,14.55
2022-12-29T21:20:59.939Z,16.02
2022-12-29T21:23:27.399Z,14.20
2022-12-29T21:25:54.595Z,16.67
2022-12-29T21:28:23.524Z,19.55
2022-12-29T21:30:51.067Z,12.73
2022-12-29T21:33:19.335Z,25.70
2022-12-29T21:35:46.808Z,19.98
2022-12-29T21:38:14.145Z,20.23
2022-12-29T21:40:40.977Z,29.33
2022-12-29T21:43:08.010Z,18.73
2022-12-29T21:45:34.859Z,23.95
2022-12-29T21:48:23.604Z,23.90
2022-12-29T21:51:14.312Z,16.10
2022-12-29T21:53:45.111Z,22.92
2022-12-29T21:56:20.147Z,19.15
2022-12-29T21:59:07.874Z,18.52
2022-12-29T22:01:55.395Z,23.85
2022-12-29T22:04:44.761Z,15.07
2022-12-29T22:07:31.273Z,26.95
2022-12-29T22:10:16.573Z,24.75
2022-12-29T22:13:02.876Z,33.47
2022-12-29T22:15:26.109Z,25.25
2022-12-29T22:15:35.993Z,21.85
2022-12-29T22:17:54.254Z,27.02
2022-12-29T22:18:04.607Z,23.45
2022-12-29T22:20:22.692Z,27.67
2022-12-29T22:20:35.069Z,20.05
2022-12-29T22:22:49.939Z,24.58
2022-12-29T22:23:02.130Z,29.13
2022-12-29T22:25:17.308Z,26.60
2022-12-29T22:25:29.198Z,22.20
2022-12-29T22:27:44.821Z,34.88
2022-12-29T22:27:59.415Z,22.25
2022-12-29T22:30:12.191Z,20.70
2022-12-29T22:30:28.111Z,26.85
2022-12-29T22:32:39.521Z,24.30
2022-12-29T22:32:56.600Z,26.30
2022-12-29T22:35:08.382Z,25.98
2022-12-29T22:35:23.394Z,15.55
2022-12-29T22:37:36.304Z,27.40
2022-12-29T22:37:50.205Z,18.58
2022-12-29T22:40:03.903Z,27.15
2022-12-29T22:40:17.002Z,18.95
2022-12-29T22:42:31.647Z,28.23
2022-12-29T22:42:43.804Z,33.60
2022-12-29T22:45:01.552Z,31.75
2022-12-29T22:45:11.042Z,24.50
2022-12-29T22:47:29.645Z,26.75
2022-12-29T22:47:37.651Z,22.80
2022-12-29T22:50:04.562Z,30.23
2022-12-29T22:50:04.719Z,34.95
2022-12-29T22:52:31.543Z,25.33
2022-12-29T22:52:31.786Z,26.80
2022-12-29T22:55:03.129Z,16.30
2022-12-29T22:55:04.587Z,34.33
2022-12-29T22:57:33.252Z,25.53
2022-12-29T22:57:33.895Z,27.83
2022-12-29T22:59:59.866Z,23.05
2022-12-29T23:00:05.124Z,28.25
2022-12-29T23:02:27.123Z,34.78
2022-12-29T23:02:32.501Z,31.35
2022-12-29T23:05:03.396Z,27.63
2022-12-29T23:05:09.202Z,23.65
2022-12-29T23:07:31.234Z,26.60
2022-12-29T23:07:35.984Z,18.60
2022-12-29T23:10:04.585Z,22.38
2022-12-29T23:10:07.781Z,28.20
2022-12-29T23:12:31.942Z,31.67
2022-12-29T23:14:58.723Z,27.83
2022-12-29T23:15:08.782Z,27.30
2022-12-29T23:17:25.513Z,18.52
2022-12-29T23:17:36.375Z,21.45
2022-12-29T23:19:52.935Z,19.20
2022-12-29T23:20:04.985Z,25.02
2022-12-29T23:22:20.062Z,25.05
2022-12-29T23:22:32.219Z,24.50
2022-12-29T23:24:46.749Z,21.63
2022-12-29T23:25:00.187Z,34.38
2022-12-29T23:27:13.921Z,25.10
2022-12-29T23:27:27.433Z,31.08
2022-12-29T23:29:40.603Z,20.92
2022-12-29T23:29:54.640Z,27.13
2022-12-29T23:32:07.238Z,21.02
2022-12-29T23:32:22.000Z,24.95
2022-12-29T23:34:33.923Z,27.75
2022-12-29T23:34:49.284Z,28.40
2022-12-29T23:37:00.521Z,35.50
2022-12-29T23:37:16.496Z,33.20
2022-12-29T23:39:28.561Z,22.00
2022-12-29T23:39:43.706Z,24.73
2022-12-29T23:41:55.218Z,30.63
2022-12-29T23:42:12.372Z,27.08
2022-12-29T23:44:21.901Z,25.48
2022-12-29T23:44:39.743Z,28.73
2022-12-29T23:46:48.682Z,20.98
2022-12-29T23:47:07.047Z,22.48
2022-12-29T23:49:15.619Z,25.02
2022-12-29T23:49:34.385Z,27.77
2022-12-29T23:51:42.260Z,30.63
2022-12-29T23:52:01.586Z,28.30
2022-12-29T23:54:08.916Z,22.35
2022-12-29T23:54:28.807Z,26.25
2022-12-29T23:56:35.727Z,22.77
2022-12-29T23:56:56.023Z,29.40
2022-12-29T23:59:06.040Z,26.80
2022-12-29T23:59:23.245Z,28.00
